Time;durP1;ratioP1;P1;durP2;ratioP2;P2;SDS_P1;SDS_P2;PMS_P1;PMS_P2;Temp;Humidity;BMP_temperature;BMP_pressure;BME280_temperature;BME280_humidity;BME280_pressure;Samples;Min_cycle;Max_cycle;Signal;HPM_P1;HPM_P2
2024/01/16 00:01:14;;;;;;;9.50;1.10;;;;;;;;;;5025862;28;20190;-67
2024/01/16 00:03:40;;;;;;;5.60;1.25;;;;;;;;;;5025565;28;20541;-67
2024/01/16 00:06:07;;;;;;;6.47;0.85;;;;;;;;;;5026149;28;20048;-67
2024/01/16 00:08:33;;;;;;;10.10;1.13;;;;;;;;;;5026147;28;20048;-67
2024/01/16 00:10:59;;;;;;;5.60;0.98;;;;;;;;;;5026863;28;21308;-67
2024/01/16 00:13:25;;;;;;;3.55;0.90;;;;;;;;;;5025385;28;20786;-67
2024/01/16 00:15:51;;;;;;;7.07;0.80;;;;;;;;;;5025418;28;21107;-67
2024/01/16 00:18:18;;;;;;;6.57;0.63;;;;;;;;;;5026178;28;20032;-67
2024/01/16 00:20:44;;;;;;;2.88;0.73;;;;;;;;;;5024630;28;20694;-67
2024/01/16 00:23:10;;;;;;;3.67;0.40;;;;;;;;;;5010612;28;20067;-67
2024/01/16 00:25:37;;;;;;;6.35;0.90;;;;;;;;;;5025523;28;20029;-67
2024/01/16 00:28:03;;;;;;;5.93;1.25;;;;;;;;;;5029190;28;20036;-67
2024/01/16 00:30:30;;;;;;;6.70;0.65;;;;;;;;;;5030057;28;20036;-67
2024/01/16 00:32:56;;;;;;;4.15;0.52;;;;;;;;;;5030476;28;20115;-67
2024/01/16 00:35:22;;;;;;;3.20;0.50;;;;;;;;;;5030683;28;21815;-67
2024/01/16 00:37:48;;;;;;;3.67;0.50;;;;;;;;;;5029419;28;20419;-67
2024/01/16 00:40:14;;;;;;;1.35;0.28;;;;;;;;;;5011492;28;20036;-67
2024/01/16 00:42:40;;;;;;;4.15;0.40;;;;;;;;;;5010485;28;20067;-67
2024/01/16 00:45:06;;;;;;;3.30;0.43;;;;;;;;;;5029459;28;20133;-67
2024/01/16 00:47:32;;;;;;;4.30;0.70;;;;;;;;;;5029547;28;20040;-67
2024/01/16 00:50:00;;;;;;;4.63;0.52;;;;;;;;;;5029860;28;20067;-68
2024/01/16 00:52:26;;;;;;;3.20;0.63;;;;;;;;;;5030418;28;21806;-68
2024/01/16 00:54:52;;;;;;;2.45;0.40;;;;;;;;;;5027386;28;20776;-67
2024/01/16 00:57:19;;;;;;;3.78;0.60;;;;;;;;;;5011322;28;20037;-67
2024/01/16 00:59:46;;;;;;;5.05;0.65;;;;;;;;;;5013416;28;20111;-68
2024/01/16 01:02:12;;;;;;;3.88;0.55;;;;;;;;;;5030282;28;20029;-68
2024/01/16 01:04:38;;;;;;;8.68;1.08;;;;;;;;;;5031086;28;20051;-68
2024/01/16 01:07:04;;;;;;;3.80;0.60;;;;;;;;;;5031546;28;20040;-68
2024/01/16 01:09:32;;;;;;;9.75;1.10;;;;;;;;;;5029947;28;20040;-67
2024/01/16 01:11:58;;;;;;;5.13;0.93;;;;;;;;;;5015214;28;20040;-67
2024/01/16 01:14:26;;;;;;;6.05;1.00;;;;;;;;;;5030277;28;20163;-67
2024/01/16 01:16:52;;;;;;;4.93;1.00;;;;;;;;;;5030231;28;20084;-68
2024/01/16 01:19:18;;;;;;;9.55;1.08;;;;;;;;;;5030065;28;20127;-68
2024/01/16 01:21:44;;;;;;;6.43;1.20;;;;;;;;;;5030036;28;20024;-68
2024/01/16 01:24:10;;;;;;;5.47;0.90;;;;;;;;;;5029219;28;20091;-67
2024/01/16 01:26:36;;;;;;;5.70;1.23;;;;;;;;;;5029409;28;20040;-67
2024/01/16 01:29:03;;;;;;;4.03;0.70;;;;;;;;;;5029961;28;20047;-67
2024/01/16 01:31:29;;;;;;;6.65;1.13;;;;;;;;;;5010076;28;20036;-68
2024/01/16 01:33:55;;;;;;;8.48;1.13;;;;;;;;;;5009754;28;20090;-67
2024/01/16 01:36:21;;;;;;;11.18;0.98;;;;;;;;;;5029705;28;20029;-67
2024/01/16 01:38:47;;;;;;;6.15;0.95;;;;;;;;;;5013073;28;20033;-68
2024/01/16 01:41:13;;;;;;;7.35;0.80;;;;;;;;;;5028470;28;20108;-68
2024/01/16 01:43:39;;;;;;;10.25;1.17;;;;;;;;;;5029589;28;20582;-67
2024/01/16 01:46:16;;;;;;;6.38;1.05;;;;;;;;;;5028813;28;20492;-67
2024/01/16 01:48:43;;;;;;;5.68;0.82;;;;;;;;;;5013045;28;20029;-68
2024/01/16 01:51:09;;;;;;;4.85;0.70;;;;;;;;;;5011423;28;20048;-68
2024/01/16 01:53:37;;;;;;;2.47;0.50;;;;;;;;;;5029410;28;20087;-67
2024/01/16 01:56:07;;;;;;;3.50;0.65;;;;;;;;;;5027860;28;20072;-68
2024/01/16 01:58:38;;;;;;;6.20;0.70;;;;;;;;;;5028336;28;20063;-67
2024/01/16 02:01:04;;;;;;;3.60;0.43;;;;;;;;;;5010302;28;20064;-67
2024/01/16 02:03:33;;;;;;;8.68;0.90;;;;;;;;;;5029860;28;20036;-67
2024/01/16 02:06:00;;;;;;;6.50;0.70;;;;;;;;;;5028323;28;20149;-67
2024/01/16 02:08:26;;;;;;;7.45;0.98;;;;;;;;;;5029585;28;20966;-67
2024/01/16 02:10:52;;;;;;;4.50;0.70;;;;;;;;;;5029260;28;20036;-67
2024/01/16 02:13:23;;;;;;;4.90;0.77;;;;;;;;;;5028743;28;20036;-68
2024/01/16 02:15:49;;;;;;;5.10;1.05;;;;;;;;;;5028980;28;20048;-68
2024/01/16 02:18:16;;;;;;;4.10;0.80;;;;;;;;;;5028725;28;20035;-67
2024/01/16 02:20:42;;;;;;;4.05;0.73;;;;;;;;;;5012350;28;21937;-67
2024/01/16 02:23:10;;;;;;;5.10;1.02;;;;;;;;;;5029051;28;20512;-67
2024/01/16 02:25:36;;;;;;;9.25;0.93;;;;;;;;;;5029027;28;20036;-67
2024/01/16 02:28:03;;;;;;;11.40;1.40;;;;;;;;;;5027804;28;20041;-67
2024/01/16 02:30:29;;;;;;;5.55;0.88;;;;;;;;;;5027431;28;20047;-67
2024/01/16 02:32:55;;;;;;;9.98;1.95;;;;;;;;;;5027434;28;21377;-67
2024/01/16 02:35:22;;;;;;;8.35;0.60;;;;;;;;;;5028009;28;20040;-67
2024/01/16 02:37:48;;;;;;;6.50;0.88;;;;;;;;;;5028097;28;20029;-67
2024/01/16 02:40:14;;;;;;;3.58;0.90;;;;;;;;;;5026382;28;20025;-67
2024/01/16 02:42:40;;;;;;;5.63;1.05;;;;;;;;;;5029284;28;20503;-67
2024/01/16 02:45:06;;;;;;;3.78;0.73;;;;;;;;;;5026817;28;20063;-67
2024/01/16 02:47:32;;;;;;;7.22;1.13;;;;;;;;;;5027876;28;20055;-67
2024/01/16 02:49:58;;;;;;;5.25;0.80;;;;;;;;;;5027662;28;20611;-67
2024/01/16 02:52:24;;;;;;;8.57;0.88;;;;;;;;;;5028162;28;20047;-67
2024/01/16 02:54:50;;;;;;;6.80;0.77;;;;;;;;;;5028072;28;20113;-67
2024/01/16 02:57:17;;;;;;;3.17;1.38;;;;;;;;;;5027502;28;20033;-67
2024/01/16 02:59:46;;;;;;;5.53;0.80;;;;;;;;;;5028480;28;20579;-67
2024/01/16 03:02:13;;;;;;;7.25;0.88;;;;;;;;;;5026011;28;20048;-67
2024/01/16 03:04:39;;;;;;;2.78;0.90;;;;;;;;;;5028199;28;20037;-67
2024/01/16 03:07:05;;;;;;;5.40;0.90;;;;;;;;;;5027201;28;20616;-67
2024/01/16 03:09:32;;;;;;;6.22;0.80;;;;;;;;;;5026916;28;20051;-67
2024/01/16 03:11:58;;;;;;;5.25;0.68;;;;;;;;;;5027281;28;20751;-67
2024/01/16 03:14:24;;;;;;;4.40;0.90;;;;;;;;;;5011051;28;20214;-67
2024/01/16 03:16:50;;;;;;;6.00;0.93;;;;;;;;;;5026828;28;20068;-67
2024/01/16 03:19:16;;;;;;;8.50;1.23;;;;;;;;;;5025957;28;20123;-67
2024/01/16 03:21:42;;;;;;;3.30;0.70;;;;;;;;;;5027059;28;22245;-67
2024/01/16 03:24:10;;;;;;;8.95;0.90;;;;;;;;;;5024198;28;21449;-67
2024/01/16 03:26:38;;;;;;;9.32;1.20;;;;;;;;;;5026481;28;20028;-67
2024/01/16 03:29:04;;;;;;;10.18;1.13;;;;;;;;;;5009391;28;20555;-67
2024/01/16 03:31:30;;;;;;;8.13;0.80;;;;;;;;;;5026523;28;21597;-67
2024/01/16 03:33:56;;;;;;;9.85;1.35;;;;;;;;;;5025617;28;20040;-67
2024/01/16 03:36:23;;;;;;;5.93;0.90;;;;;;;;;;5025006;28;20049;-67
2024/01/16 03:38:49;;;;;;;6.72;1.38;;;;;;;;;;5025436;28;20037;-67
2024/01/16 03:41:15;;;;;;;6.65;1.02;;;;;;;;;;5027263;28;20060;-67
2024/01/16 03:43:41;;;;;;;7.68;1.05;;;;;;;;;;5026682;28;20036;-67
2024/01/16 03:46:07;;;;;;;7.78;1.30;;;;;;;;;;5026895;28;20041;-67
2024/01/16 03:48:33;;;;;;;12.50;1.25;;;;;;;;;;5026051;28;20508;-67
2024/01/16 03:51:00;;;;;;;2.90;0.95;;;;;;;;;;5026378;28;20627;-67
2024/01/16 03:53:26;;;;;;;8.60;1.77;;;;;;;;;;5027069;28;20059;-67
2024/01/16 03:55:52;;;;;;;9.50;1.23;;;;;;;;;;5025543;28;20046;-67
2024/01/16 03:58:18;;;;;;;9.00;1.30;;;;;;;;;;5028461;28;20992;-67
2024/01/16 04:00:44;;;;;;;8.43;1.20;;;;;;;;;;5027341;28;20439;-67
2024/01/16 04:03:11;;;;;;;5.45;1.10;;;;;;;;;;5026722;28;20071;-67
2024/01/16 04:05:37;;;;;;;7.10;1.00;;;;;;;;;;5027289;28;20115;-67
2024/01/16 04:08:03;;;;;;;13.23;1.17;;;;;;;;;;5026717;28;20064;-67
2024/01/16 04:10:29;;;;;;;6.93;0.93;;;;;;;;;;5008329;28;20499;-67
2024/01/16 04:12:55;;;;;;;10.40;1.30;;;;;;;;;;5025983;28;20508;-66
2024/01/16 04:15:22;;;;;;;4.53;0.90;;;;;;;;;;5026258;28;20048;-66
2024/01/16 04:17:48;;;;;;;6.18;0.93;;;;;;;;;;5027212;28;20040;-66
2024/01/16 04:20:14;;;;;;;7.32;1.50;;;;;;;;;;5026081;28;20040;-66
2024/01/16 04:22:40;;;;;;;14.02;2.10;;;;;;;;;;5027922;28;20549;-66
2024/01/16 04:25:06;;;;;;;9.75;1.05;;;;;;;;;;5026004;28;20033;-66
2024/01/16 04:27:32;;;;;;;6.90;1.05;;;;;;;;;;5026751;28;20706;-67
2024/01/16 04:29:58;;;;;;;6.43;1.17;;;;;;;;;;5026534;28;20033;-66
2024/01/16 04:32:25;;;;;;;5.93;0.90;;;;;;;;;;5027338;28;20035;-66
2024/01/16 04:34:51;;;;;;;10.73;1.83;;;;;;;;;;5026198;28;20063;-66
2024/01/16 04:37:17;;;;;;;8.23;1.20;;;;;;;;;;5026983;28;20160;-66
2024/01/16 04:39:43;;;;;;;4.65;1.00;;;;;;;;;;5026853;28;20064;-66
2024/01/16 04:42:09;;;;;;;8.15;1.73;;;;;;;;;;5026100;28;20051;-66
2024/01/16 04:44:35;;;;;;;10.10;1.30;;;;;;;;;;5024850;28;20055;-66
2024/01/16 04:47:01;;;;;;;8.30;1.70;;;;;;;;;;5027602;28;20546;-66
2024/01/16 04:49:27;;;;;;;7.93;1.10;;;;;;;;;;5027318;28;20268;-66
2024/01/16 04:51:54;;;;;;;5.20;1.77;;;;;;;;;;5025945;28;20570;-66
2024/01/16 04:54:20;;;;;;;7.50;1.58;;;;;;;;;;5027100;28;20040;-66
2024/01/16 04:56:46;;;;;;;6.43;1.48;;;;;;;;;;5027039;28;20159;-66
2024/01/16 04:59:12;;;;;;;8.38;1.17;;;;;;;;;;5026146;28;20143;-66
2024/01/16 05:01:38;;;;;;;13.90;1.58;;;;;;;;;;5026555;28;20115;-67
2024/01/16 05:04:04;;;;;;;7.68;1.15;;;;;;;;;;5027784;28;21133;-66
2024/01/16 05:06:30;;;;;;;7.60;0.98;;;;;;;;;;5026363;28;20029;-66
2024/01/16 05:08:56;;;;;;;3.60;0.70;;;;;;;;;;5025537;28;20040;-66
2024/01/16 05:11:22;;;;;;;10.25;1.30;;;;;;;;;;5026965;28;20028;-66
2024/01/16 05:13:48;;;;;;;9.80;1.27;;;;;;;;;;5031091;28;20033;-66
2024/01/16 05:16:14;;;;;;;14.98;1.17;;;;;;;;;;5028840;28;20033;-66
2024/01/16 05:18:44;;;;;;;9.57;1.25;;;;;;;;;;5030176;28;20036;-66
2024/01/16 05:21:10;;;;;;;8.07;1.02;;;;;;;;;;5030178;28;20086;-67
2024/01/16 05:23:37;;;;;;;5.32;1.20;;;;;;;;;;5011344;28;20033;-67
2024/01/16 05:26:03;;;;;;;6.25;1.52;;;;;;;;;;5029021;28;20033;-67
2024/01/16 05:28:29;;;;;;;7.22;1.13;;;;;;;;;;5030595;28;20047;-67
2024/01/16 05:30:55;;;;;;;14.52;1.35;;;;;;;;;;5030386;28;20051;-67
2024/01/16 05:33:21;;;;;;;6.97;0.90;;;;;;;;;;5028230;28;20032;-67
2024/01/16 05:35:47;;;;;;;7.38;1.05;;;;;;;;;;5029157;28;20085;-67
2024/01/16 05:38:13;;;;;;;13.95;1.40;;;;;;;;;;5030097;28;20070;-67
2024/01/16 05:40:39;;;;;;;10.23;1.30;;;;;;;;;;5029553;28;20132;-67
2024/01/16 05:43:06;;;;;;;6.03;1.05;;;;;;;;;;5029664;28;20040;-67
2024/01/16 05:45:32;;;;;;;9.68;1.50;;;;;;;;;;5029750;28;20028;-67
2024/01/16 05:47:58;;;;;;;10.77;1.30;;;;;;;;;;5028157;28;20047;-67
2024/01/16 05:50:24;;;;;;;4.75;1.10;;;;;;;;;;5026584;28;20036;-67
2024/01/16 05:52:50;;;;;;;8.40;1.10;;;;;;;;;;5009530;28;21034;-66
2024/01/16 05:55:16;;;;;;;9.02;1.48;;;;;;;;;;5027697;28;20125;-66
2024/01/16 05:57:43;;;;;;;7.03;1.27;;;;;;;;;;5028908;28;20029;-66
2024/01/16 06:00:10;;;;;;;12.20;1.23;;;;;;;;;;5028918;28;20172;-66
2024/01/16 06:02:36;;;;;;;13.07;0.98;;;;;;;;;;5027860;28;20668;-66
2024/01/16 06:05:03;;;;;;;8.23;1.02;;;;;;;;;;5028733;28;20118;-66
2024/01/16 06:07:29;;;;;;;5.15;0.93;;;;;;;;;;5027957;28;20032;-66
2024/01/16 06:09:55;;;;;;;13.48;1.10;;;;;;;;;;5028208;28;20044;-66
2024/01/16 06:12:21;;;;;;;8.93;1.35;;;;;;;;;;5026770;28;20029;-66
2024/01/16 06:14:47;;;;;;;6.03;1.25;;;;;;;;;;5028983;28;20043;-66
2024/01/16 06:17:13;;;;;;;7.78;1.30;;;;;;;;;;5027154;28;20040;-66
2024/01/16 06:19:39;;;;;;;13.00;1.23;;;;;;;;;;5026420;28;20157;-66
2024/01/16 06:22:05;;;;;;;9.40;1.30;;;;;;;;;;5026466;28;20033;-66
2024/01/16 06:24:36;;;;;;;7.80;1.25;;;;;;;;;;5026928;28;20095;-66
2024/01/16 06:27:03;;;;;;;6.43;1.30;;;;;;;;;;5027010;28;20115;-66
2024/01/16 06:29:29;;;;;;;8.00;1.00;;;;;;;;;;5026685;28;20098;-66
2024/01/16 06:31:55;;;;;;;5.28;1.00;;;;;;;;;;5026256;28;20040;-66
2024/01/16 06:34:21;;;;;;;7.40;1.17;;;;;;;;;;5024611;28;20081;-66
2024/01/16 06:36:47;;;;;;;5.45;1.10;;;;;;;;;;5026095;28;20069;-66
2024/01/16 06:39:13;;;;;;;8.43;1.40;;;;;;;;;;5007794;28;20033;-66
2024/01/16 06:41:41;;;;;;;11.20;1.45;;;;;;;;;;5028085;28;20090;-66
2024/01/16 06:44:07;;;;;;;6.43;1.50;;;;;;;;;;5029075;28;20040;-66
2024/01/16 06:46:34;;;;;;;11.60;1.85;;;;;;;;;;5013027;28;20052;-66
2024/01/16 06:49:00;;;;;;;4.63;0.90;;;;;;;;;;5029999;28;20106;-66
2024/01/16 06:51:26;;;;;;;9.18;2.25;;;;;;;;;;5029941;28;20029;-66
2024/01/16 06:53:52;;;;;;;7.72;1.30;;;;;;;;;;5017264;28;20105;-66
2024/01/16 06:56:18;;;;;;;6.05;1.13;;;;;;;;;;5028652;28;20120;-66
2024/01/16 06:58:44;;;;;;;5.93;1.20;;;;;;;;;;5030727;28;20118;-66
2024/01/16 07:01:11;;;;;;;8.73;1.30;;;;;;;;;;5030909;28;20149;-66
2024/01/16 07:03:37;;;;;;;8.00;1.15;;;;;;;;;;5030533;28;20106;-66
2024/01/16 07:06:03;;;;;;;10.40;1.35;;;;;;;;;;5031167;28;20762;-66
2024/01/16 07:08:29;;;;;;;8.65;1.30;;;;;;;;;;5031502;28;20040;-66
2024/01/16 07:10:56;;;;;;;9.52;1.45;;;;;;;;;;5029298;28;20605;-66
2024/01/16 07:13:22;;;;;;;13.25;1.63;;;;;;;;;;5030634;28;20123;-66
2024/01/16 07:15:48;;;;;;;6.60;1.10;;;;;;;;;;5028989;28;20051;-66
2024/01/16 07:18:14;;;;;;;11.65;1.50;;;;;;;;;;5018764;28;20525;-66
2024/01/16 07:20:40;;;;;;;9.02;1.25;;;;;;;;;;5031836;28;20033;-66
2024/01/16 07:23:07;;;;;;;8.20;1.13;;;;;;;;;;5031122;28;20029;-66
2024/01/16 07:25:33;;;;;;;11.85;1.35;;;;;;;;;;5031617;28;20045;-66
2024/01/16 07:27:59;;;;;;;7.07;1.20;;;;;;;;;;5031795;28;20040;-66
2024/01/16 07:30:25;;;;;;;5.90;1.23;;;;;;;;;;5028235;28;20044;-66
2024/01/16 07:32:51;;;;;;;15.02;2.15;;;;;;;;;;5030851;28;21854;-66
2024/01/16 07:35:17;;;;;;;9.23;1.05;;;;;;;;;;5029950;28;20041;-66
2024/01/16 07:37:43;;;;;;;6.93;1.40;;;;;;;;;;5031658;28;20025;-66
2024/01/16 07:40:09;;;;;;;11.10;1.85;;;;;;;;;;5030660;28;20040;-66
2024/01/16 07:42:35;;;;;;;6.78;1.77;;;;;;;;;;5028151;28;20682;-66
2024/01/16 07:45:04;;;;;;;10.18;1.13;;;;;;;;;;5011374;28;20272;-66
2024/01/16 07:47:31;;;;;;;5.47;0.90;;;;;;;;;;5011505;28;20174;-66
2024/01/16 07:49:57;;;;;;;5.55;1.17;;;;;;;;;;5031611;28;20048;-66
2024/01/16 07:52:23;;;;;;;11.13;1.33;;;;;;;;;;5031169;28;20037;-66
2024/01/16 07:54:49;;;;;;;7.40;1.30;;;;;;;;;;5030522;28;20055;-66
2024/01/16 07:57:15;;;;;;;9.80;1.55;;;;;;;;;;5029718;28;21951;-66
2024/01/16 07:59:41;;;;;;;8.35;1.00;;;;;;;;;;5030761;28;20048;-66
2024/01/16 08:02:08;;;;;;;7.28;1.02;;;;;;;;;;5029768;28;20025;-66
2024/01/16 08:04:35;;;;;;;6.38;1.17;;;;;;;;;;5030693;28;20031;-66
2024/01/16 08:07:01;;;;;;;10.15;1.10;;;;;;;;;;5013121;28;20037;-66
2024/01/16 08:09:27;;;;;;;3.88;1.13;;;;;;;;;;5030470;28;20103;-66
2024/01/16 08:11:53;;;;;;;3.13;1.20;;;;;;;;;;5031025;28;20036;-66
2024/01/16 08:14:19;;;;;;;9.40;1.00;;;;;;;;;;5029743;28;21137;-66
2024/01/16 08:16:45;;;;;;;9.05;1.05;;;;;;;;;;5029480;28;21756;-66
2024/01/16 08:19:11;;;;;;;6.57;1.45;;;;;;;;;;5031025;28;20043;-66
2024/01/16 08:21:37;;;;;;;6.72;1.25;;;;;;;;;;5010416;28;20033;-66
2024/01/16 08:24:03;;;;;;;6.55;0.90;;;;;;;;;;5029979;28;20033;-66
2024/01/16 08:26:29;;;;;;;4.72;1.52;;;;;;;;;;5029746;28;20036;-66
2024/01/16 08:28:55;;;;;;;5.40;0.98;;;;;;;;;;5031139;28;21753;-66
2024/01/16 08:31:21;;;;;;;1.95;0.88;;;;;;;;;;5029870;28;20041;-66
2024/01/16 08:33:48;;;;;;;3.75;0.95;;;;;;;;;;5029766;28;21086;-66
2024/01/16 08:36:15;;;;;;;4.70;1.25;;;;;;;;;;5029581;28;20107;-66
2024/01/16 08:38:41;;;;;;;5.00;1.67;;;;;;;;;;5029483;28;20082;-66
2024/01/16 08:41:07;;;;;;;6.32;1.05;;;;;;;;;;5030688;28;20029;-66
2024/01/16 08:43:34;;;;;;;7.78;1.20;;;;;;;;;;5030029;28;20062;-66
2024/01/16 08:46:00;;;;;;;8.52;1.13;;;;;;;;;;5031190;28;20101;-66
2024/01/16 08:48:26;;;;;;;7.00;1.58;;;;;;;;;;5034055;28;20064;-66
2024/01/16 08:50:54;;;;;;;4.68;0.95;;;;;;;;;;5011298;28;20052;-66
2024/01/16 08:53:20;;;;;;;4.63;0.98;;;;;;;;;;5026467;28;20040;-67
2024/01/16 08:55:46;;;;;;;7.05;1.05;;;;;;;;;;5025767;28;20732;-66
2024/01/16 08:58:12;;;;;;;5.68;0.70;;;;;;;;;;5027141;28;21011;-66
2024/01/16 09:00:38;;;;;;;4.07;0.80;;;;;;;;;;5027346;28;20091;-67
2024/01/16 09:03:04;;;;;;;5.43;0.90;;;;;;;;;;5033265;28;20037;-67
2024/01/16 09:05:30;;;;;;;4.65;0.90;;;;;;;;;;5015394;28;20024;-67
2024/01/16 09:07:57;;;;;;;4.32;0.70;;;;;;;;;;5031790;28;20028;-66
2024/01/16 09:10:23;;;;;;;4.47;0.80;;;;;;;;;;5028868;28;20033;-67
2024/01/16 09:12:49;;;;;;;5.82;0.88;;;;;;;;;;5032968;28;20029;-66
2024/01/16 09:15:15;;;;;;;5.38;1.58;;;;;;;;;;5030138;28;20028;-66
2024/01/16 09:17:41;;;;;;;6.75;1.00;;;;;;;;;;5032505;28;20064;-67
2024/01/16 09:20:07;;;;;;;4.80;0.85;;;;;;;;;;5031916;28;20133;-67
2024/01/16 09:22:33;;;;;;;4.70;0.93;;;;;;;;;;5029893;28;20037;-67
2024/01/16 09:25:01;;;;;;;4.85;1.10;;;;;;;;;;5026385;28;20029;-67
2024/01/16 09:27:27;;;;;;;3.05;0.73;;;;;;;;;;5026524;28;21817;-66
2024/01/16 09:29:53;;;;;;;4.10;0.90;;;;;;;;;;5027682;28;20079;-66
2024/01/16 09:32:19;;;;;;;5.97;1.05;;;;;;;;;;5028231;28;20033;-67
2024/01/16 09:34:45;;;;;;;4.97;0.95;;;;;;;;;;5027765;28;20044;-66
2024/01/16 09:37:14;;;;;;;4.25;1.05;;;;;;;;;;5026176;28;20045;-67
2024/01/16 09:39:41;;;;;;;6.85;0.80;;;;;;;;;;5026600;28;20033;-67
2024/01/16 09:42:07;;;;;;;6.50;0.98;;;;;;;;;;5025944;28;20427;-67
2024/01/16 09:44:34;;;;;;;6.20;1.00;;;;;;;;;;5026256;28;20051;-67
2024/01/16 09:47:01;;;;;;;4.30;0.82;;;;;;;;;;5026810;28;20163;-67
2024/01/16 09:49:28;;;;;;;6.10;1.02;;;;;;;;;;5026872;28;20040;-67
2024/01/16 09:51:54;;;;;;;6.15;0.70;;;;;;;;;;5027500;28;20090;-67
2024/01/16 09:54:20;;;;;;;3.35;1.00;;;;;;;;;;5027470;28;20049;-67
2024/01/16 09:56:48;;;;;;;7.93;0.88;;;;;;;;;;5007337;28;20427;-67
2024/01/16 09:59:18;;;;;;;3.75;0.73;;;;;;;;;;5025792;28;20028;-67
2024/01/16 10:01:45;;;;;;;5.30;1.02;;;;;;;;;;5012295;28;20086;-67
2024/01/16 10:04:11;;;;;;;4.70;0.65;;;;;;;;;;5027107;28;20865;-67
2024/01/16 10:06:38;;;;;;;5.68;0.93;;;;;;;;;;5026779;28;20036;-67
2024/01/16 10:09:06;;;;;;;3.28;0.70;;;;;;;;;;5027107;28;20781;-67
2024/01/16 10:11:34;;;;;;;4.97;1.80;;;;;;;;;;5026814;28;20040;-67
2024/01/16 10:14:01;;;;;;;5.22;0.63;;;;;;;;;;5026345;28;20032;-67
2024/01/16 10:16:45;;;;;;;23.63;1.33;;;;;;;;;;5025015;28;20040;-67
2024/01/16 10:19:12;;;;;;;13.20;1.00;;;;;;;;;;5026325;28;20113;-66
2024/01/16 10:21:38;;;;;;;4.20;0.90;;;;;;;;;;5025235;28;20892;-67
2024/01/16 10:24:12;;;;;;;5.90;0.82;;;;;;;;;;5026537;28;21099;-66
2024/01/16 10:26:38;;;;;;;2.22;0.50;;;;;;;;;;5026293;28;20059;-67
2024/01/16 10:29:04;;;;;;;2.75;0.75;;;;;;;;;;5026787;28;20048;-67
2024/01/16 10:31:31;;;;;;;2.20;0.52;;;;;;;;;;5024408;28;20039;-66
2024/01/16 10:33:57;;;;;;;3.80;1.05;;;;;;;;;;5024544;28;20028;-67
2024/01/16 10:36:25;;;;;;;5.55;1.02;;;;;;;;;;5024587;28;20029;-67
2024/01/16 10:38:57;;;;;;;2.92;0.57;;;;;;;;;;5025259;28;20027;-66
2024/01/16 10:41:27;;;;;;;3.92;0.88;;;;;;;;;;5027555;28;20047;-67
2024/01/16 10:44:11;;;;;;;2.63;0.80;;;;;;;;;;5030725;28;20925;-66
2024/01/16 10:46:37;;;;;;;2.80;0.70;;;;;;;;;;5031883;28;20468;-66
2024/01/16 10:49:04;;;;;;;5.93;0.95;;;;;;;;;;5027695;28;20055;-66
2024/01/16 10:51:30;;;;;;;2.58;0.90;;;;;;;;;;5024908;28;20029;-66
2024/01/16 10:54:01;;;;;;;4.43;0.95;;;;;;;;;;5023275;28;20051;-67
2024/01/16 10:56:28;;;;;;;3.97;1.13;;;;;;;;;;5026698;28;20033;-66
2024/01/16 10:59:06;;;;;;;6.95;1.20;;;;;;;;;;5029873;28;20480;-66
2024/01/16 11:01:33;;;;;;;6.18;1.55;;;;;;;;;;5031714;28;20680;-66
2024/01/16 11:04:00;;;;;;;8.32;1.30;;;;;;;;;;5027333;28;20040;-66
2024/01/16 11:06:26;;;;;;;6.28;1.25;;;;;;;;;;5018862;28;20044;-66
2024/01/16 11:08:53;;;;;;;4.90;1.23;;;;;;;;;;5024477;28;20864;-66
2024/01/16 11:11:19;;;;;;;4.80;1.30;;;;;;;;;;5027992;28;20035;-63
2024/01/16 11:13:46;;;;;;;8.35;1.65;;;;;;;;;;5024248;28;20036;-64
2024/01/16 11:16:12;;;;;;;8.80;1.50;;;;;;;;;;5026641;28;20041;-64
2024/01/16 11:18:39;;;;;;;5.20;1.00;;;;;;;;;;5007951;28;20512;-64
2024/01/16 11:21:06;;;;;;;3.88;0.90;;;;;;;;;;5022973;28;20056;-66
2024/01/16 11:23:32;;;;;;;5.95;1.23;;;;;;;;;;5022535;28;20044;-66
2024/01/16 11:25:59;;;;;;;6.75;1.67;;;;;;;;;;5021564;28;20051;-66
2024/01/16 11:28:29;;;;;;;4.25;0.90;;;;;;;;;;5021132;28;20036;-66
2024/01/16 11:30:56;;;;;;;3.38;1.00;;;;;;;;;;5024913;28;20039;-66
2024/01/16 11:33:42;;;;;;;3.28;0.80;;;;;;;;;;5024460;28;20036;-66
2024/01/16 11:36:28;;;;;;;2.30;0.85;;;;;;;;;;5026399;28;20033;-66
2024/01/16 11:38:57;;;;;;;4.30;1.25;;;;;;;;;;5025015;28;20759;-66
2024/01/16 11:41:58;;;;;;;6.25;1.10;;;;;;;;;;5024990;28;20029;-64
2024/01/16 11:44:48;;;;;;;3.70;1.13;;;;;;;;;;4969339;28;21817;-64
2024/01/16 11:47:24;;;;;;;4.20;0.82;;;;;;;;;;5026759;28;20050;-64
2024/01/16 11:50:09;;;;;;;4.00;0.82;;;;;;;;;;5030435;28;20045;-64
2024/01/16 11:52:42;;;;;;;5.82;1.13;;;;;;;;;;5030771;28;20032;-64
2024/01/16 11:55:27;;;;;;;5.70;1.10;;;;;;;;;;5030825;28;20032;-64
2024/01/16 11:58:12;;;;;;;1.85;0.90;;;;;;;;;;5030817;28;20422;-64
2024/01/16 12:00:42;;;;;;;4.82;0.80;;;;;;;;;;5030293;28;20052;-64
2024/01/16 12:03:08;;;;;;;5.05;0.90;;;;;;;;;;5029404;28;20051;-64
2024/01/16 12:05:34;;;;;;;3.75;1.10;;;;;;;;;;5030876;28;20036;-64
2024/01/16 12:08:03;;;;;;;5.78;1.40;;;;;;;;;;5030546;28;21004;-64
2024/01/16 12:10:29;;;;;;;7.85;1.40;;;;;;;;;;5030172;28;20590;-64
2024/01/16 12:13:00;;;;;;;3.22;0.93;;;;;;;;;;5030853;28;20025;-64
2024/01/16 12:15:26;;;;;;;7.20;1.50;;;;;;;;;;5030355;28;20050;-64
2024/01/16 12:17:57;;;;;;;6.45;1.15;;;;;;;;;;5031242;28;20151;-64
2024/01/16 12:20:23;;;;;;;12.25;1.20;;;;;;;;;;5030872;28;20032;-64
2024/01/16 12:22:53;;;;;;;4.30;1.08;;;;;;;;;;5035450;28;20031;-64
2024/01/16 12:25:21;;;;;;;7.53;1.23;;;;;;;;;;5034432;28;20037;-64
2024/01/16 12:27:54;;;;;;;6.25;1.20;;;;;;;;;;5035212;28;20665;-65
2024/01/16 12:30:20;;;;;;;5.47;1.10;;;;;;;;;;5034251;28;20105;-64
2024/01/16 12:32:46;;;;;;;7.43;1.42;;;;;;;;;;5035027;28;20288;-64
2024/01/16 12:35:13;;;;;;;6.20;1.42;;;;;;;;;;5034028;28;20041;-64
2024/01/16 12:37:39;;;;;;;5.90;1.40;;;;;;;;;;5034288;28;20047;-65
2024/01/16 12:40:06;;;;;;;7.93;2.28;;;;;;;;;;5033551;28;20037;-65
2024/01/16 12:42:32;;;;;;;7.22;1.15;;;;;;;;;;5034058;28;20044;-65
2024/01/16 12:44:59;;;;;;;3.38;1.08;;;;;;;;;;5033587;28;20046;-65
2024/01/16 12:47:25;;;;;;;7.55;1.42;;;;;;;;;;5034215;28;20951;-65
2024/01/16 12:49:51;;;;;;;3.40;1.30;;;;;;;;;;5034600;28;20041;-65
2024/01/16 12:52:18;;;;;;;8.38;1.60;;;;;;;;;;5034180;28;20040;-64
2024/01/16 12:54:45;;;;;;;5.78;1.33;;;;;;;;;;5033617;28;20040;-64
2024/01/16 12:57:13;;;;;;;7.38;1.75;;;;;;;;;;5033406;28;20036;-65
2024/01/16 12:59:40;;;;;;;7.68;2.05;;;;;;;;;;5032360;28;20068;-64
2024/01/16 13:02:07;;;;;;;10.02;2.20;;;;;;;;;;5012111;28;20032;-65
2024/01/16 13:04:33;;;;;;;8.02;1.95;;;;;;;;;;5030253;28;20025;-65
2024/01/16 13:07:03;;;;;;;7.03;1.98;;;;;;;;;;5031708;28;20242;-65
2024/01/16 13:09:29;;;;;;;8.30;3.63;;;;;;;;;;5028038;28;20041;-65
2024/01/16 13:11:55;;;;;;;7.97;2.58;;;;;;;;;;5031197;28;20037;-65
2024/01/16 13:14:22;;;;;;;7.18;2.10;;;;;;;;;;5032289;28;20068;-65
2024/01/16 13:16:52;;;;;;;12.00;2.42;;;;;;;;;;5031825;28;20060;-65
2024/01/16 13:19:21;;;;;;;5.93;2.35;;;;;;;;;;5031227;28;20029;-66
2024/01/16 13:21:47;;;;;;;9.63;2.72;;;;;;;;;;5030655;28;20040;-65
2024/01/16 13:24:13;;;;;;;14.43;2.58;;;;;;;;;;5031897;28;20041;-65
2024/01/16 13:26:40;;;;;;;15.05;3.80;;;;;;;;;;5030656;28;20120;-65
2024/01/16 13:29:06;;;;;;;9.77;3.25;;;;;;;;;;5030783;28;20047;-65
2024/01/16 13:31:32;;;;;;;6.43;2.28;;;;;;;;;;5031694;28;20036;-65
2024/01/16 13:33:58;;;;;;;9.07;2.35;;;;;;;;;;5030632;28;20041;-65
2024/01/16 13:36:25;;;;;;;7.55;2.25;;;;;;;;;;5033269;28;20460;-65
2024/01/16 13:38:51;;;;;;;10.48;3.78;;;;;;;;;;5032616;28;20132;-65
2024/01/16 13:41:17;;;;;;;8.32;2.30;;;;;;;;;;5032205;28;20128;-65
2024/01/16 13:43:43;;;;;;;8.45;2.15;;;;;;;;;;5033535;28;20064;-65
2024/01/16 13:46:10;;;;;;;11.30;2.67;;;;;;;;;;5032805;28;20045;-65
2024/01/16 13:48:36;;;;;;;6.60;2.53;;;;;;;;;;5032030;28;20047;-65
2024/01/16 13:51:04;;;;;;;9.05;2.25;;;;;;;;;;5031346;28;20052;-65
2024/01/16 13:53:30;;;;;;;9.63;2.75;;;;;;;;;;5029095;28;21073;-65
2024/01/16 13:55:58;;;;;;;7.13;2.22;;;;;;;;;;5022141;28;20090;-65
2024/01/16 13:58:24;;;;;;;7.38;2.30;;;;;;;;;;5024863;28;20037;-65
2024/01/16 14:00:51;;;;;;;8.93;3.10;;;;;;;;;;5025017;28;20052;-65
2024/01/16 14:03:17;;;;;;;9.13;2.65;;;;;;;;;;5025363;28;20147;-65
2024/01/16 14:05:43;;;;;;;6.57;2.60;;;;;;;;;;5024568;28;20779;-65
2024/01/16 14:08:12;;;;;;;8.38;2.72;;;;;;;;;;5023529;28;20039;-65
2024/01/16 14:10:38;;;;;;;8.13;2.63;;;;;;;;;;5022672;28;20044;-65
2024/01/16 14:13:05;;;;;;;8.48;2.40;;;;;;;;;;5024915;28;20128;-65
2024/01/16 14:15:31;;;;;;;6.00;2.50;;;;;;;;;;5023266;28;20032;-65
2024/01/16 14:17:58;;;;;;;8.75;2.50;;;;;;;;;;5028524;28;20036;-65
2024/01/16 14:20:26;;;;;;;9.85;2.33;;;;;;;;;;5028463;28;20037;-65
2024/01/16 14:22:52;;;;;;;9.27;2.10;;;;;;;;;;5026432;28;21038;-65
2024/01/16 14:25:19;;;;;;;6.18;1.65;;;;;;;;;;5028545;28;21303;-65
2024/01/16 14:28:05;;;;;;;17.70;2.60;;;;;;;;;;5027548;28;20029;-65
2024/01/16 14:30:35;;;;;;;6.45;1.83;;;;;;;;;;5030198;28;21114;-65
2024/01/16 14:33:01;;;;;;;10.95;2.20;;;;;;;;;;5029366;28;20033;-65
2024/01/16 14:35:28;;;;;;;7.85;1.83;;;;;;;;;;5029846;28;20033;-65
2024/01/16 14:37:54;;;;;;;9.98;2.17;;;;;;;;;;5026830;28;20025;-65
2024/01/16 14:40:20;;;;;;;6.93;1.90;;;;;;;;;;5021850;28;20036;-65